Pottsboro, Texas
Current Conditions -  °F | °C
As of 11:15 AM on Friday 24 Oct 2014 (Local Time) from KGYI Reporting Station
Clear Clear  
Wind Chill: 23°   Ceiling: Unl
Heat Index: 23°   Visibility: 10mi
Dew Point: 16°   Wind: 14mph
Humidity: 64%   Direction: 190°S
Pressure: 30.18"   Gusts: NA
Location:  33.76°N, 96.67°W
Report Text: KGYI 241615Z AUTO 19012KT 10SM CLR 23/16 A3018 RMK AO2 T02290157
Loading
Personal Weather Stations






























Interactive Weather Map
Tropical Storm Tracking
New forecast layout! Learn more

10-Day Weather Forecast

Advertisements
Track Severe Weather on mobile